This is the latest recevied weather packets stored in our database for station/object WB0OCV. If no packets are shown the sender has not sent any weather packets the latest 1 day(s).
| Time | Temp. | Humidity | Pressure | Rain* | Wind** | Luminosity | Snow |
|---|---|---|---|---|---|---|---|
| 1778023903 | 13.89° C | 77% | 1014.6 hPa | 0 mm | 0.89 m/s, 207° | 7 W/m² | - |
| 1778023600 | 13.89° C | 78% | 1014.7 hPa | 0 mm | 0.89 m/s, 183° | 11 W/m² | - |
| 1778023297 | 13.89° C | 78% | 1014.6 hPa | 0 mm | 0.45 m/s, 152° | 14 W/m² | - |
| 1778022994 | 13.89° C | 79% | 1014.4 hPa | 0 mm | 0.45 m/s, 234° | 16 W/m² | - |
| 1778022693 | 13.89° C | 78% | 1014.1 hPa | 0 mm | 0 m/s | 17 W/m² | - |
| 1778022391 | 13.89° C | 79% | 1014.3 hPa | 0 mm | 0 m/s | 18 W/m² | - |
| 1778022086 | 13.89° C | 80% | 1014.3 hPa | 0 mm | 0.89 m/s, 242° | 20 W/m² | - |
| 1778021783 | 13.89° C | 79% | 1014.1 hPa | 0 mm | 0.89 m/s, 164° | 21 W/m² | - |
| 1778021479 | 14.44° C | 79% | 1014.4 hPa | 0 mm | 1.79 m/s, 299° | 23 W/m² | - |
| 1778021176 | 14.44° C | 79% | 1014 hPa | 0 mm | 1.34 m/s, 202° | 25 W/m² | - |
| 1778020874 | 14.44° C | 79% | 1013.9 hPa | 0 mm | 0.89 m/s, 172° | 30 W/m² | - |
| 1778020570 | 14.44° C | 79% | 1014 hPa | 0 mm | 0 m/s | 35 W/m² | - |
| 1778020267 | 14.44° C | 79% | 1013.9 hPa | 0 mm | 0.89 m/s, 104° | 41 W/m² | - |
| 1778019963 | 14.44° C | 79% | 1013.8 hPa | 0 mm | 0.89 m/s, 109° | 49 W/m² | - |
| 1778019659 | 15° C | 79% | 1014.1 hPa | 0 mm | 1.79 m/s, 245° | 51 W/m² | - |
| 1778019357 | 15° C | 78% | 1013.9 hPa | 0 mm | 0.89 m/s, 151° | 53 W/m² | - |
| 1778019053 | 15° C | 78% | 1013.9 hPa | 0 mm | 0.89 m/s, 209° | 57 W/m² | - |
| 1778018750 | 15° C | 78% | 1013.9 hPa | 0 mm | 0.45 m/s, 169° | 65 W/m² | - |
| 1778018448 | 15° C | 78% | 1013.9 hPa | 0 mm | 0.89 m/s, 181° | 76 W/m² | - |
| 1778018146 | 15° C | 78% | 1014.1 hPa | 0 mm | 0.89 m/s, 159° | 63 W/m² | - |
| 1778017844 | 15.56° C | 77% | 1014.3 hPa | 0 mm | 2.24 m/s, 233° | 82 W/m² | - |
| 1778017541 | 15.56° C | 76% | 1014 hPa | 0 mm | 2.68 m/s, 221° | 165 W/m² | - |
| 1778017238 | 15.56° C | 75% | 1014.3 hPa | 0 mm | 0.89 m/s, 174° | 197 W/m² | - |
| 1778016936 | 15.56° C | 74% | 1014 hPa | 0 mm | 1.34 m/s, 169° | 219 W/m² | - |
| 1778016632 | 15.56° C | 74% | 1013.8 hPa | 0 mm | 1.34 m/s, 342° | 240 W/m² | - |
* Rain latest hour (hover to see other rain measurements)
** Current wind speed in m/s (hover to see current wind gust speed)